createdAt,value
2018-04-30T00:00:23.011Z,1002.27
2018-04-30T00:01:22.762Z,1002.22
2018-04-30T00:02:22.812Z,1002.27
2018-04-30T00:03:22.781Z,1002.24
2018-04-30T00:04:22.741Z,1002.33
2018-04-30T00:05:22.858Z,1002.38
2018-04-30T00:06:22.763Z,1002.39
2018-04-30T00:07:22.743Z,1002.3
2018-04-30T00:08:22.776Z,1002.3
2018-04-30T00:09:22.728Z,1002.3
2018-04-30T00:10:23.128Z,1002.25
2018-04-30T00:11:22.750Z,1002.27
2018-04-30T00:12:22.766Z,1002.24
2018-04-30T00:13:22.771Z,1002.32
2018-04-30T00:14:22.802Z,1002.31
2018-04-30T00:15:22.810Z,1002.26
2018-04-30T00:16:22.794Z,1002.26
2018-04-30T00:17:22.796Z,1002.18
2018-04-30T00:18:22.907Z,1002.24
2018-04-30T00:19:22.804Z,1002.24
2018-04-30T00:20:22.766Z,1002.3
2018-04-30T00:21:22.769Z,1002.34
2018-04-30T00:22:22.790Z,1002.31
2018-04-30T00:23:22.871Z,1002.38
2018-04-30T00:24:22.789Z,1002.32
2018-04-30T00:25:22.864Z,1002.34
2018-04-30T00:26:22.837Z,1002.29
2018-04-30T00:27:22.844Z,1002.26
2018-04-30T00:28:22.841Z,1002.33
2018-04-30T00:29:22.782Z,1002.29
2018-04-30T00:30:22.830Z,1002.44
2018-04-30T00:31:22.748Z,1002.37
2018-04-30T00:32:22.776Z,1002.41
2018-04-30T00:33:22.919Z,1002.41
2018-04-30T00:34:22.787Z,1002.42
2018-04-30T00:35:22.799Z,1002.41
2018-04-30T00:36:22.828Z,1002.4
2018-04-30T00:37:22.761Z,1002.39
2018-04-30T00:38:22.773Z,1002.42
2018-04-30T00:39:22.883Z,1002.44
2018-04-30T00:40:22.851Z,1002.4
2018-04-30T00:41:22.775Z,1002.46
2018-04-30T00:42:22.757Z,1002.51
2018-04-30T00:43:22.773Z,1002.5
2018-04-30T00:44:22.858Z,1002.51
2018-04-30T00:45:22.788Z,1002.58
2018-04-30T00:46:22.769Z,1002.56
2018-04-30T00:47:22.777Z,1002.6
2018-04-30T00:48:22.757Z,1002.65
2018-04-30T00:49:22.870Z,1002.71
2018-04-30T00:50:22.754Z,1002.57
2018-04-30T00:51:22.800Z,1002.62
2018-04-30T00:52:22.763Z,1002.69
2018-04-30T00:53:22.783Z,1002.69
2018-04-30T00:54:22.771Z,1002.71
2018-04-30T00:55:22.773Z,1002.79
2018-04-30T00:56:22.838Z,1002.79
2018-04-30T00:57:22.758Z,1002.85
2018-04-30T00:58:22.895Z,1002.82
2018-04-30T00:59:22.753Z,1002.94
2018-04-30T01:00:22.723Z,1002.89
2018-04-30T01:01:22.786Z,1002.84
2018-04-30T01:02:22.783Z,1002.83
2018-04-30T01:03:22.931Z,1002.8
2018-04-30T01:04:22.761Z,1002.78
2018-04-30T01:05:22.748Z,1002.81
2018-04-30T01:06:22.949Z,1002.75
2018-04-30T01:07:22.888Z,1002.77
2018-04-30T01:08:22.755Z,1002.73
2018-04-30T01:09:22.776Z,1002.74
2018-04-30T01:10:22.821Z,1002.63
2018-04-30T01:11:22.803Z,1002.66
2018-04-30T01:12:22.768Z,1002.71
2018-04-30T01:13:22.747Z,1002.67
2018-04-30T01:14:22.758Z,1002.64
2018-04-30T01:15:22.718Z,1002.61
2018-04-30T01:16:22.734Z,1002.67
2018-04-30T01:17:22.730Z,1002.62
2018-04-30T01:18:22.759Z,1002.62
2018-04-30T01:19:22.762Z,1002.72
2018-04-30T01:20:22.761Z,1002.71
2018-04-30T01:21:22.746Z,1002.75
2018-04-30T01:22:22.778Z,1002.79
2018-04-30T01:23:22.768Z,1002.79
2018-04-30T01:24:22.745Z,1002.83
2018-04-30T01:25:22.755Z,1002.78
2018-04-30T01:26:22.754Z,1002.7
2018-04-30T01:27:22.731Z,1002.76
2018-04-30T01:28:22.757Z,1002.74
2018-04-30T01:29:22.771Z,1002.83
2018-04-30T01:30:22.738Z,1002.81
2018-04-30T01:31:22.771Z,1002.84
2018-04-30T01:32:22.721Z,1002.82
2018-04-30T01:33:22.842Z,1002.86
2018-04-30T01:34:22.733Z,1002.92
2018-04-30T01:35:22.722Z,1003.05
2018-04-30T01:36:22.811Z,1003.02
2018-04-30T01:37:22.778Z,1003.01
2018-04-30T01:38:22.761Z,1002.98
2018-04-30T01:39:22.892Z,1002.98
2018-04-30T01:40:22.724Z,1002.96
2018-04-30T01:41:23.137Z,1002.98
2018-04-30T01:42:22.735Z,1002.93
2018-04-30T01:43:22.718Z,1002.95
2018-04-30T01:44:22.758Z,1002.91
2018-04-30T01:45:22.754Z,1002.94
2018-04-30T01:46:22.768Z,1003.08
2018-04-30T01:47:22.898Z,1003.07
2018-04-30T01:48:22.759Z,1003.06
2018-04-30T01:49:22.777Z,1003.17
2018-04-30T01:50:22.781Z,1003.18
2018-04-30T01:51:22.739Z,1003.17
2018-04-30T01:52:22.865Z,1003.2
2018-04-30T01:53:22.818Z,1003.16
2018-04-30T01:54:22.785Z,1003.2
2018-04-30T01:55:22.826Z,1003.26
2018-04-30T01:56:22.828Z,1003.3
2018-04-30T01:57:22.786Z,1003.33
2018-04-30T01:58:22.793Z,1003.35
2018-04-30T01:59:22.760Z,1003.33
2018-04-30T02:00:22.741Z,1003.37
2018-04-30T02:01:22.772Z,1003.43
2018-04-30T02:02:22.772Z,1003.48
2018-04-30T02:03:22.850Z,1003.5
2018-04-30T02:04:22.754Z,1003.46
2018-04-30T02:05:22.955Z,1003.49
2018-04-30T02:06:22.758Z,1003.57
2018-04-30T02:07:22.751Z,1003.57
2018-04-30T02:08:22.766Z,1003.6
2018-04-30T02:09:22.805Z,1003.61
2018-04-30T02:10:22.751Z,1003.71
2018-04-30T02:11:22.868Z,1003.65
2018-04-30T02:12:22.753Z,1003.67
2018-04-30T02:13:22.740Z,1003.7
2018-04-30T02:14:22.784Z,1003.63
2018-04-30T02:15:22.789Z,1003.62
2018-04-30T02:16:22.807Z,1003.73
2018-04-30T02:17:22.782Z,1003.74
2018-04-30T02:18:22.781Z,1003.71
2018-04-30T02:19:22.815Z,1003.79
2018-04-30T02:20:22.729Z,1003.82
2018-04-30T02:21:22.776Z,1003.81
2018-04-30T02:22:22.744Z,1003.84
2018-04-30T02:23:22.789Z,1003.88
2018-04-30T02:24:22.785Z,1003.92
2018-04-30T02:25:22.802Z,1003.94
2018-04-30T02:26:22.744Z,1004.01
2018-04-30T02:27:22.788Z,1003.91
2018-04-30T02:28:22.802Z,1003.96
2018-04-30T02:29:22.820Z,1003.96
2018-04-30T02:30:22.808Z,1004
2018-04-30T02:31:22.782Z,1004.01
2018-04-30T02:32:22.763Z,1003.97
2018-04-30T02:33:22.760Z,1004.01
2018-04-30T02:34:22.832Z,1004.01
2018-04-30T02:35:22.795Z,1003.92
2018-04-30T02:36:22.802Z,1003.92
2018-04-30T02:37:22.788Z,1003.87
2018-04-30T02:38:22.825Z,1003.86
2018-04-30T02:39:22.791Z,1003.92
2018-04-30T02:40:22.862Z,1003.95
2018-04-30T02:41:22.791Z,1004.05
2018-04-30T02:42:22.762Z,1004.06
2018-04-30T02:43:22.807Z,1004.07
2018-04-30T02:44:22.894Z,1004.14
2018-04-30T02:45:22.827Z,1004.1
2018-04-30T02:46:22.831Z,1004.11
2018-04-30T02:47:22.770Z,1004.11
2018-04-30T02:48:22.797Z,1004.15
2018-04-30T02:49:22.827Z,1004.19
2018-04-30T02:50:22.959Z,1004.24
2018-04-30T02:51:22.814Z,1004.23
2018-04-30T02:52:22.829Z,1004.34
2018-04-30T02:53:22.805Z,1004.37
2018-04-30T02:54:22.896Z,1004.37
2018-04-30T02:55:22.850Z,1004.44
2018-04-30T02:56:22.786Z,1004.37
2018-04-30T02:57:22.788Z,1004.41
2018-04-30T02:58:22.803Z,1004.5
2018-04-30T02:59:22.817Z,1004.43
2018-04-30T03:00:22.834Z,1004.4
2018-04-30T03:01:22.883Z,1004.42
2018-04-30T03:02:22.824Z,1004.36
2018-04-30T03:03:22.815Z,1004.33
2018-04-30T03:04:22.828Z,1004.36
2018-04-30T03:05:22.862Z,1004.37
2018-04-30T03:06:22.856Z,1004.4
2018-04-30T03:07:22.937Z,1004.46
2018-04-30T03:08:22.824Z,1004.38
2018-04-30T03:09:22.787Z,1004.39
2018-04-30T03:10:22.844Z,1004.4
2018-04-30T03:11:22.828Z,1004.42
2018-04-30T03:12:22.804Z,1004.45
2018-04-30T03:13:22.837Z,1004.48
2018-04-30T03:14:22.773Z,1004.49
2018-04-30T03:15:22.862Z,1004.46
2018-04-30T03:16:22.831Z,1004.54
2018-04-30T03:17:22.827Z,1004.55
2018-04-30T03:18:22.844Z,1004.55
2018-04-30T03:19:22.920Z,1004.6
2018-04-30T03:20:23.104Z,1004.55
2018-04-30T03:21:22.872Z,1004.57
2018-04-30T03:22:22.796Z,1004.57
2018-04-30T03:23:22.811Z,1004.55
2018-04-30T03:24:22.855Z,1004.65
2018-04-30T03:25:22.810Z,1004.7
2018-04-30T03:26:22.842Z,1004.71
2018-04-30T03:27:22.966Z,1004.79
2018-04-30T03:28:22.810Z,1004.76
2018-04-30T03:29:22.871Z,1004.79
2018-04-30T03:30:22.838Z,1004.77
2018-04-30T03:31:22.800Z,1004.79
2018-04-30T03:32:22.800Z,1004.75
2018-04-30T03:33:22.847Z,1004.77
2018-04-30T03:34:22.813Z,1004.74
2018-04-30T03:35:22.865Z,1004.77
2018-04-30T03:36:22.792Z,1004.74
2018-04-30T03:37:22.842Z,1004.72
2018-04-30T03:38:22.781Z,1004.77
2018-04-30T03:39:22.875Z,1004.77
2018-04-30T03:40:22.787Z,1004.78
2018-04-30T03:41:22.796Z,1004.86
2018-04-30T03:42:22.793Z,1004.81
2018-04-30T03:43:22.793Z,1004.87
2018-04-30T03:44:22.774Z,1004.87
2018-04-30T03:45:22.796Z,1004.84
2018-04-30T03:46:22.798Z,1004.89
2018-04-30T03:47:22.784Z,1004.9
2018-04-30T03:48:23.090Z,1004.94
2018-04-30T03:49:22.791Z,1004.91
2018-04-30T03:50:22.816Z,1004.92
2018-04-30T03:51:22.791Z,1004.95
2018-04-30T03:52:22.852Z,1005
2018-04-30T03:53:22.979Z,1005.02
2018-04-30T03:54:22.774Z,1005.06
2018-04-30T03:55:22.843Z,1005.1
2018-04-30T03:56:22.794Z,1005.07
2018-04-30T03:57:22.792Z,1005.19
2018-04-30T03:58:22.851Z,1005.2
2018-04-30T03:59:22.923Z,1005.24
2018-04-30T04:00:22.849Z,1005.24
2018-04-30T04:01:22.861Z,1005.3
2018-04-30T04:02:22.887Z,1005.29
2018-04-30T04:03:22.847Z,1005.31
2018-04-30T04:04:22.992Z,1005.28
2018-04-30T04:05:22.815Z,1005.29
2018-04-30T04:06:22.844Z,1005.35
2018-04-30T04:07:22.802Z,1005.35
2018-04-30T04:08:22.818Z,1005.38
2018-04-30T04:09:22.806Z,1005.34
2018-04-30T04:10:22.805Z,1005.32
2018-04-30T04:11:22.830Z,1005.34
2018-04-30T04:12:22.797Z,1005.3
2018-04-30T04:13:22.912Z,1005.25
2018-04-30T04:14:22.826Z,1005.26
2018-04-30T04:15:22.806Z,1005.25
2018-04-30T04:16:22.811Z,1005.26
2018-04-30T04:17:22.796Z,1005.28
2018-04-30T04:18:22.807Z,1005.32
2018-04-30T04:19:22.914Z,1005.34
2018-04-30T04:20:22.896Z,1005.33
2018-04-30T04:21:22.805Z,1005.36
2018-04-30T04:22:22.835Z,1005.34
2018-04-30T04:23:22.827Z,1005.32
2018-04-30T04:24:22.844Z,1005.36
2018-04-30T04:25:22.845Z,1005.37
2018-04-30T04:26:22.808Z,1005.38
2018-04-30T04:27:22.876Z,1005.42
2018-04-30T04:28:22.952Z,1005.4
2018-04-30T04:29:22.818Z,1005.41
2018-04-30T04:30:22.921Z,1005.4
2018-04-30T04:31:22.867Z,1005.41
2018-04-30T04:32:22.941Z,1005.51
2018-04-30T04:33:22.803Z,1005.55
2018-04-30T04:34:22.825Z,1005.59
2018-04-30T04:35:22.804Z,1005.61
2018-04-30T04:36:22.961Z,1005.59
2018-04-30T04:37:22.790Z,1005.64
2018-04-30T04:38:22.873Z,1005.59
2018-04-30T04:39:23.038Z,1005.64
2018-04-30T04:40:22.831Z,1005.64
2018-04-30T04:41:22.877Z,1005.64
2018-04-30T04:42:22.803Z,1005.68
2018-04-30T04:43:22.832Z,1005.69
2018-04-30T04:44:22.861Z,1005.67
2018-04-30T04:45:22.848Z,1005.73
2018-04-30T04:46:22.837Z,1005.78
2018-04-30T04:47:22.875Z,1005.79
2018-04-30T04:48:22.829Z,1005.77
2018-04-30T04:49:22.827Z,1005.81
2018-04-30T04:50:22.887Z,1005.78
2018-04-30T04:51:22.840Z,1005.74
2018-04-30T04:52:22.899Z,1005.74
2018-04-30T04:53:22.847Z,1005.73
2018-04-30T04:54:22.823Z,1005.74
2018-04-30T04:55:22.833Z,1005.74
2018-04-30T04:56:22.858Z,1005.74
2018-04-30T04:57:22.851Z,1005.77
2018-04-30T04:58:22.835Z,1005.86
2018-04-30T04:59:22.830Z,1005.83
2018-04-30T05:00:22.852Z,1005.81
2018-04-30T05:01:22.826Z,1005.8
2018-04-30T05:02:23.064Z,1005.79
2018-04-30T05:03:22.820Z,1005.85
2018-04-30T05:04:22.993Z,1005.81
2018-04-30T05:05:22.850Z,1005.75
2018-04-30T05:06:22.906Z,1005.72
2018-04-30T05:07:22.864Z,1005.7
2018-04-30T05:08:22.848Z,1005.69
2018-04-30T05:09:22.868Z,1005.74
2018-04-30T05:10:22.875Z,1005.73
2018-04-30T05:11:22.818Z,1005.81
2018-04-30T05:12:22.857Z,1005.86
2018-04-30T05:13:22.822Z,1005.82
2018-04-30T05:14:22.848Z,1005.77
2018-04-30T05:15:22.910Z,1005.78
2018-04-30T05:16:22.883Z,1005.7
2018-04-30T05:17:22.868Z,1005.7
2018-04-30T05:18:23.005Z,1005.74
2018-04-30T05:19:22.865Z,1005.76
2018-04-30T05:20:22.853Z,1005.82
2018-04-30T05:21:22.859Z,1005.8
2018-04-30T05:22:22.899Z,1005.87
2018-04-30T05:23:23.207Z,1005.91
2018-04-30T05:24:22.953Z,1005.92
2018-04-30T05:25:22.944Z,1005.95
2018-04-30T05:26:22.871Z,1005.95
2018-04-30T05:27:22.891Z,1006.02
2018-04-30T05:28:22.907Z,1006.08
2018-04-30T05:29:22.833Z,1006.14
2018-04-30T05:30:22.885Z,1006.15
2018-04-30T05:31:22.930Z,1006.16
2018-04-30T05:32:22.889Z,1006.17
2018-04-30T05:33:22.854Z,1006.19
2018-04-30T05:34:22.879Z,1006.14
2018-04-30T05:35:22.903Z,1006.14
2018-04-30T05:36:22.865Z,1006.15
2018-04-30T05:37:22.884Z,1006.23
2018-04-30T05:38:22.881Z,1006.25
2018-04-30T05:39:22.883Z,1006.24
2018-04-30T05:40:22.857Z,1006.25
2018-04-30T05:41:22.880Z,1006.35
2018-04-30T05:42:22.909Z,1006.39
2018-04-30T05:43:22.860Z,1006.34
2018-04-30T05:44:23.261Z,1006.39
2018-04-30T05:45:22.897Z,1006.35
2018-04-30T05:46:22.867Z,1006.29
2018-04-30T05:47:22.839Z,1006.26
2018-04-30T05:48:22.922Z,1006.3
2018-04-30T05:49:22.937Z,1006.3
2018-04-30T05:50:22.852Z,1006.28
2018-04-30T05:51:22.873Z,1006.27
2018-04-30T05:52:22.844Z,1006.26
2018-04-30T05:53:22.880Z,1006.17
2018-04-30T05:54:22.841Z,1006.18
2018-04-30T05:55:22.891Z,1006.2
2018-04-30T05:56:22.846Z,1006.29
2018-04-30T05:57:22.887Z,1006.36
2018-04-30T05:58:22.880Z,1006.42
2018-04-30T05:59:22.866Z,1006.49
2018-04-30T06:00:22.935Z,1006.4
2018-04-30T06:01:22.893Z,1006.42
2018-04-30T06:02:22.973Z,1006.38
2018-04-30T06:03:22.892Z,1006.36
2018-04-30T06:04:23.301Z,1006.35
2018-04-30T06:05:22.995Z,1006.42
2018-04-30T06:06:22.917Z,1006.41
2018-04-30T06:07:22.878Z,1006.44
2018-04-30T06:08:22.876Z,1006.45
2018-04-30T06:09:22.891Z,1006.48
2018-04-30T06:10:22.902Z,1006.54
2018-04-30T06:11:22.852Z,1006.53
2018-04-30T06:12:22.862Z,1006.6
2018-04-30T06:13:22.880Z,1006.59
2018-04-30T06:14:22.874Z,1006.63
2018-04-30T06:15:22.890Z,1006.61
2018-04-30T06:16:22.848Z,1006.61
2018-04-30T06:17:23.188Z,1006.6
2018-04-30T06:18:22.870Z,1006.61
2018-04-30T06:19:22.857Z,1006.62
2018-04-30T06:20:22.867Z,1006.59
2018-04-30T06:21:22.899Z,1006.58
2018-04-30T06:22:22.922Z,1006.56
2018-04-30T06:23:22.877Z,1006.58
2018-04-30T06:24:22.880Z,1006.55
2018-04-30T06:25:22.853Z,1006.48
2018-04-30T06:26:22.895Z,1006.49
2018-04-30T06:27:22.884Z,1006.47
2018-04-30T06:28:22.889Z,1006.46
2018-04-30T06:29:22.864Z,1006.44
2018-04-30T06:30:22.902Z,1006.43
2018-04-30T06:31:22.919Z,1006.43
2018-04-30T06:32:24.324Z,1006.45
2018-04-30T06:33:22.892Z,1006.45
2018-04-30T06:34:22.860Z,1006.43
2018-04-30T06:35:22.908Z,1006.47
2018-04-30T06:36:22.864Z,1006.43
2018-04-30T06:37:22.868Z,1006.34
2018-04-30T06:38:23.228Z,1006.33
2018-04-30T06:39:22.930Z,1006.25
2018-04-30T06:40:22.863Z,1006.35
2018-04-30T06:41:22.877Z,1006.31
2018-04-30T06:42:22.907Z,1006.34
2018-04-30T06:43:22.945Z,1006.35
2018-04-30T06:44:22.965Z,1006.34
2018-04-30T06:45:22.925Z,1006.31
2018-04-30T06:46:22.887Z,1006.27
2018-04-30T06:47:22.880Z,1006.26
2018-04-30T06:48:22.891Z,1006.27
2018-04-30T06:49:23.039Z,1006.26
2018-04-30T06:50:22.987Z,1006.29
2018-04-30T06:51:22.889Z,1006.25
2018-04-30T06:52:22.949Z,1006.24
2018-04-30T06:53:22.876Z,1006.27
2018-04-30T06:54:22.940Z,1006.28
2018-04-30T06:55:22.963Z,1006.3
2018-04-30T06:56:22.866Z,1006.29
2018-04-30T06:57:22.859Z,1006.35
2018-04-30T06:58:22.900Z,1006.31
2018-04-30T06:59:22.891Z,1006.36
2018-04-30T07:00:23.067Z,1006.36
2018-04-30T07:01:22.895Z,1006.38
2018-04-30T07:02:22.924Z,1006.44
2018-04-30T07:03:22.893Z,1006.47
2018-04-30T07:04:22.882Z,1006.48
2018-04-30T07:05:23.026Z,1006.48
2018-04-30T07:06:22.877Z,1006.44
2018-04-30T07:07:22.921Z,1006.54
2018-04-30T07:08:22.877Z,1006.57
2018-04-30T07:09:22.984Z,1006.56
2018-04-30T07:10:22.964Z,1006.56
2018-04-30T07:11:22.933Z,1006.53
2018-04-30T07:12:22.878Z,1006.54
2018-04-30T07:13:22.903Z,1006.5
2018-04-30T07:14:22.925Z,1006.5
2018-04-30T07:15:22.904Z,1006.53
2018-04-30T07:16:22.885Z,1006.55
2018-04-30T07:17:23.187Z,1006.6
2018-04-30T07:18:22.895Z,1006.6
2018-04-30T07:19:22.909Z,1006.57
2018-04-30T07:20:22.883Z,1006.61
2018-04-30T07:21:22.906Z,1006.64
2018-04-30T07:22:22.919Z,1006.59
2018-04-30T07:23:22.922Z,1006.62
2018-04-30T07:24:22.895Z,1006.61
2018-04-30T07:25:22.900Z,1006.64
2018-04-30T07:26:22.965Z,1006.6
2018-04-30T07:27:22.903Z,1006.63
2018-04-30T07:28:22.921Z,1006.7
2018-04-30T07:29:22.920Z,1006.56
2018-04-30T07:30:22.897Z,1006.68
2018-04-30T07:31:22.912Z,1006.7
2018-04-30T07:32:22.894Z,1006.68
2018-04-30T07:33:22.911Z,1006.63
2018-04-30T07:34:22.898Z,1006.57
2018-04-30T07:35:22.926Z,1006.56
2018-04-30T07:36:22.970Z,1006.53
2018-04-30T07:37:22.910Z,1006.5
2018-04-30T07:38:22.964Z,1006.5
2018-04-30T07:39:22.910Z,1006.47
2018-04-30T07:40:22.901Z,1006.46
2018-04-30T07:41:22.885Z,1006.51
2018-04-30T07:42:22.923Z,1006.6
2018-04-30T07:43:22.968Z,1006.58
2018-04-30T07:44:22.919Z,1006.59
2018-04-30T07:45:22.927Z,1006.6
2018-04-30T07:46:22.942Z,1006.59
2018-04-30T07:47:22.997Z,1006.52
2018-04-30T07:48:23.005Z,1006.55
2018-04-30T07:49:23.113Z,1006.59
2018-04-30T07:50:23.182Z,1006.55
2018-04-30T07:51:23.015Z,1006.51
2018-04-30T07:52:22.926Z,1006.53
2018-04-30T07:53:23.119Z,1006.62
2018-04-30T07:54:22.918Z,1006.63
2018-04-30T07:55:22.973Z,1006.57
2018-04-30T07:56:23.014Z,1006.56
2018-04-30T07:57:23.022Z,1006.55
2018-04-30T07:58:22.895Z,1006.55
2018-04-30T07:59:22.969Z,1006.54
2018-04-30T08:00:22.955Z,1006.6
2018-04-30T08:01:23.007Z,1006.65
2018-04-30T08:02:22.948Z,1006.58
2018-04-30T08:03:22.908Z,1006.63
2018-04-30T08:04:22.924Z,1006.61
2018-04-30T08:05:22.944Z,1006.69
2018-04-30T08:06:22.916Z,1006.67
2018-04-30T08:07:22.933Z,1006.7
2018-04-30T08:08:22.935Z,1006.65
2018-04-30T08:09:22.898Z,1006.61
2018-04-30T08:10:22.905Z,1006.63
2018-04-30T08:11:23.005Z,1006.67
2018-04-30T08:12:22.957Z,1006.68
2018-04-30T08:13:22.897Z,1006.64
2018-04-30T08:14:22.924Z,1006.61
2018-04-30T08:15:22.918Z,1006.61
2018-04-30T08:16:22.994Z,1006.64
2018-04-30T08:17:22.957Z,1006.66
2018-04-30T08:18:22.948Z,1006.67
2018-04-30T08:19:22.924Z,1006.64
2018-04-30T08:20:22.932Z,1006.6
2018-04-30T08:21:22.985Z,1006.59
2018-04-30T08:22:22.929Z,1006.61
2018-04-30T08:23:22.965Z,1006.6
2018-04-30T08:24:22.978Z,1006.55
2018-04-30T08:25:22.954Z,1006.56
2018-04-30T08:26:23.125Z,1006.45
2018-04-30T08:27:22.925Z,1006.49
2018-04-30T08:28:22.897Z,1006.45
2018-04-30T08:29:22.908Z,1006.42
2018-04-30T08:30:22.930Z,1006.44
2018-04-30T08:31:22.969Z,1006.46
2018-04-30T08:32:22.909Z,1006.43
2018-04-30T08:33:22.918Z,1006.4
2018-04-30T08:34:22.959Z,1006.41
2018-04-30T08:35:22.979Z,1006.47
2018-04-30T08:36:22.927Z,1006.5
2018-04-30T08:37:22.928Z,1006.41
2018-04-30T08:38:22.938Z,1006.51
2018-04-30T08:39:22.980Z,1006.46
2018-04-30T08:40:22.963Z,1006.39
2018-04-30T08:41:22.930Z,1006.42
2018-04-30T08:42:22.931Z,1006.44
2018-04-30T08:43:22.932Z,1006.41
2018-04-30T08:44:23.274Z,1006.4
2018-04-30T08:45:23.114Z,1006.38
2018-04-30T08:46:23.268Z,1006.46
2018-04-30T08:47:23.374Z,1006.45
2018-04-30T08:48:23.264Z,1006.45
2018-04-30T08:49:23.511Z,1006.41
2018-04-30T08:50:24.337Z,1006.47
2018-04-30T08:51:23.493Z,1006.44
2018-04-30T08:52:22.925Z,1006.43
2018-04-30T08:53:22.955Z,1006.45
2018-04-30T08:54:22.934Z,1006.56
2018-04-30T08:55:22.939Z,1006.52
2018-04-30T08:56:23.669Z,1006.56
2018-04-30T08:57:22.955Z,1006.5
2018-04-30T08:58:22.963Z,1006.48
2018-04-30T08:59:22.949Z,1006.54
2018-04-30T09:00:23.125Z,1006.54
2018-04-30T09:01:23.288Z,1006.49
2018-04-30T09:02:23.003Z,1006.49
2018-04-30T09:03:22.943Z,1006.54
2018-04-30T09:04:22.973Z,1006.44
2018-04-30T09:05:22.945Z,1006.45
2018-04-30T09:06:22.970Z,1006.5
2018-04-30T09:07:22.934Z,1006.46
2018-04-30T09:08:22.939Z,1006.5
2018-04-30T09:09:22.955Z,1006.5
2018-04-30T09:10:22.946Z,1006.48
2018-04-30T09:11:23.127Z,1006.5
2018-04-30T09:12:22.960Z,1006.63
2018-04-30T09:13:22.938Z,1006.58
2018-04-30T09:14:22.941Z,1006.59
2018-04-30T09:15:23.085Z,1006.58
2018-04-30T09:16:25.921Z,1006.62
2018-04-30T09:17:22.949Z,1006.59
2018-04-30T09:18:24.342Z,1006.64
2018-04-30T09:19:22.957Z,1006.64
2018-04-30T09:20:23.058Z,1006.57
2018-04-30T09:21:22.950Z,1006.58
2018-04-30T09:22:22.979Z,1006.52
2018-04-30T09:23:23.461Z,1006.53
2018-04-30T09:24:22.963Z,1006.61
2018-04-30T09:25:22.991Z,1006.59
2018-04-30T09:26:23.019Z,1006.58
2018-04-30T09:27:22.973Z,1006.55
2018-04-30T09:28:22.998Z,1006.52
2018-04-30T09:29:22.971Z,1006.57
2018-04-30T09:30:23.043Z,1006.58
2018-04-30T09:31:22.992Z,1006.6
2018-04-30T09:32:23.001Z,1006.55
2018-04-30T09:33:22.973Z,1006.5
2018-04-30T09:34:22.981Z,1006.6
2018-04-30T09:35:23.138Z,1006.65
2018-04-30T09:36:23.054Z,1006.6
2018-04-30T09:37:22.996Z,1006.62
2018-04-30T09:38:22.998Z,1006.66
2018-04-30T09:39:22.981Z,1006.64
2018-04-30T09:40:22.966Z,1006.6
2018-04-30T09:41:22.999Z,1006.58
2018-04-30T09:42:22.966Z,1006.55
2018-04-30T09:43:23.046Z,1006.51
2018-04-30T09:44:22.953Z,1006.59
2018-04-30T09:45:22.969Z,1006.57
2018-04-30T09:46:23.008Z,1006.52
2018-04-30T09:47:22.984Z,1006.55
2018-04-30T09:48:23.010Z,1006.5
2018-04-30T09:49:22.959Z,1006.48
2018-04-30T09:50:22.955Z,1006.5
2018-04-30T09:51:22.958Z,1006.53
2018-04-30T09:52:22.998Z,1006.57
2018-04-30T09:53:22.969Z,1006.53
2018-04-30T09:54:22.999Z,1006.51
2018-04-30T09:55:23.044Z,1006.58
2018-04-30T09:56:22.955Z,1006.42
2018-04-30T09:57:22.994Z,1006.51
2018-04-30T09:58:22.968Z,1006.43
2018-04-30T09:59:23.031Z,1006.4
2018-04-30T10:00:22.956Z,1006.46
2018-04-30T10:01:22.959Z,1006.46
2018-04-30T10:02:22.975Z,1006.45
2018-04-30T10:03:22.962Z,1006.43
2018-04-30T10:04:22.971Z,1006.47
2018-04-30T10:05:23.021Z,1006.33
2018-04-30T10:06:23.134Z,1006.5
2018-04-30T10:07:23.130Z,1006.52
2018-04-30T10:08:22.968Z,1006.45
2018-04-30T10:09:22.997Z,1006.43
2018-04-30T10:10:22.972Z,1006.55
2018-04-30T10:11:22.997Z,1006.5
2018-04-30T10:12:23.077Z,1006.41
2018-04-30T10:13:22.970Z,1006.4
2018-04-30T10:14:23.082Z,1006.43
2018-04-30T10:15:22.993Z,1006.47
2018-04-30T10:16:22.990Z,1006.43
2018-04-30T10:17:23.094Z,1006.44
2018-04-30T10:18:23.037Z,1006.41
2018-04-30T10:19:22.969Z,1006.37
2018-04-30T10:20:22.969Z,1006.33
2018-04-30T10:21:22.968Z,1006.33
2018-04-30T10:22:22.995Z,1006.37
2018-04-30T10:23:23.129Z,1006.42
2018-04-30T10:24:22.975Z,1006.47
2018-04-30T10:25:23.137Z,1006.5
2018-04-30T10:26:23.012Z,1006.4
2018-04-30T10:27:22.996Z,1006.44
2018-04-30T10:28:22.989Z,1006.4
2018-04-30T10:29:23.008Z,1006.38
2018-04-30T10:30:23.007Z,1006.5
2018-04-30T10:31:23.037Z,1006.39
2018-04-30T10:32:22.982Z,1006.3
2018-04-30T10:33:23.032Z,1006.35
2018-04-30T10:34:23.039Z,1006.28
2018-04-30T10:35:23.030Z,1006.21
2018-04-30T10:36:23.051Z,1006.2
2018-04-30T10:37:23.048Z,1006.19
2018-04-30T10:38:23.049Z,1006.22
2018-04-30T10:39:23.045Z,1006.3
2018-04-30T10:40:23.049Z,1006.16
2018-04-30T10:41:23.010Z,1006.25
2018-04-30T10:42:23.082Z,1006.21
2018-04-30T10:43:23.142Z,1006.19
2018-04-30T10:44:23.526Z,1006.21
2018-04-30T10:45:23.056Z,1006.18
2018-04-30T10:46:23.067Z,1006.18
2018-04-30T10:47:23.041Z,1006.22
2018-04-30T10:48:23.031Z,1006.17
2018-04-30T10:49:23.031Z,1006.21
2018-04-30T10:50:23.050Z,1006.13
2018-04-30T10:51:23.107Z,1006.15
2018-04-30T10:52:23.061Z,1006.14
2018-04-30T10:53:23.605Z,1006.18
2018-04-30T10:54:23.673Z,1006.19
2018-04-30T10:55:23.003Z,1006.18
2018-04-30T10:56:24.209Z,1006.1
2018-04-30T10:57:23.031Z,1006.13
2018-04-30T10:58:23.038Z,1006.11
2018-04-30T10:59:23.005Z,1006.21
2018-04-30T11:00:23.018Z,1006.2
2018-04-30T11:01:22.998Z,1006.15
2018-04-30T11:02:23.010Z,1006.15
2018-04-30T11:03:23.173Z,1006.11
2018-04-30T11:04:23.008Z,1006.21
2018-04-30T11:05:23.132Z,1006.17
2018-04-30T11:06:23.019Z,1006.23
2018-04-30T11:07:23.039Z,1006.2
2018-04-30T11:08:23.076Z,1006.22
2018-04-30T11:09:23.031Z,1006.26
2018-04-30T11:10:23.013Z,1006.25
2018-04-30T11:11:23.014Z,1006.24
2018-04-30T11:12:23.097Z,1006.27
2018-04-30T11:13:23.023Z,1006.33
2018-04-30T11:14:23.053Z,1006.32
2018-04-30T11:15:23.029Z,1006.34
2018-04-30T11:16:23.036Z,1006.35
2018-04-30T11:17:23.044Z,1006.34
2018-04-30T11:18:23.164Z,1006.35
2018-04-30T11:19:23.804Z,1006.33
2018-04-30T11:20:23.124Z,1006.36
2018-04-30T11:21:23.971Z,1006.45
2018-04-30T11:22:23.045Z,1006.5
2018-04-30T11:23:23.050Z,1006.59
2018-04-30T11:24:23.149Z,1006.58
2018-04-30T11:25:23.078Z,1006.63
2018-04-30T11:26:23.029Z,1006.63
2018-04-30T11:27:23.010Z,1006.66
2018-04-30T11:28:25.263Z,1006.67
2018-04-30T11:29:23.056Z,1006.6
2018-04-30T11:30:23.101Z,1006.63
2018-04-30T11:31:23.432Z,1006.53
2018-04-30T11:32:23.024Z,1006.49
2018-04-30T11:33:23.033Z,1006.5
2018-04-30T11:34:23.041Z,1006.55
2018-04-30T11:35:23.240Z,1006.55
2018-04-30T11:36:23.349Z,1006.54
2018-04-30T11:37:23.040Z,1006.52
2018-04-30T11:38:23.054Z,1006.55
2018-04-30T11:39:23.114Z,1006.53
2018-04-30T11:40:23.063Z,1006.52
2018-04-30T11:41:23.079Z,1006.49
2018-04-30T11:42:23.067Z,1006.58
2018-04-30T11:43:23.024Z,1006.57
2018-04-30T11:44:23.026Z,1006.59
2018-04-30T11:45:23.223Z,1006.55
2018-04-30T11:46:23.515Z,1006.48
2018-04-30T11:47:23.068Z,1006.45
2018-04-30T11:48:23.067Z,1006.46
2018-04-30T11:49:23.067Z,1006.48
2018-04-30T11:50:23.052Z,1006.5
2018-04-30T11:51:23.092Z,1006.44
2018-04-30T11:52:23.041Z,1006.43
2018-04-30T11:53:23.105Z,1006.43
2018-04-30T11:54:23.630Z,1006.47
2018-04-30T11:55:23.061Z,1006.48
2018-04-30T11:56:23.079Z,1006.51
2018-04-30T11:57:23.054Z,1006.51
2018-04-30T11:58:28.674Z,1006.46
2018-04-30T11:59:23.053Z,1006.55
2018-04-30T12:00:23.183Z,1006.56
2018-04-30T12:01:24.073Z,1006.57
2018-04-30T12:02:23.324Z,1006.6
2018-04-30T12:03:23.110Z,1006.61
2018-04-30T12:04:23.034Z,1006.68
2018-04-30T12:05:23.082Z,1006.64
2018-04-30T12:06:23.071Z,1006.71
2018-04-30T12:07:23.047Z,1006.73
2018-04-30T12:08:23.046Z,1006.73